sensor_id;sensor_type;location;lat;lon;timestamp;pressure;altitude;pressure_sealevel;temperature;humidity
5952;BME280;3001;42.622;23.194;2023-09-30T00:00:02;91792.47;;;18.59;64.90
5952;BME280;3001;42.622;23.194;2023-09-30T00:02:29;91792.47;;;18.59;64.11
5952;BME280;3001;42.622;23.194;2023-09-30T00:04:56;91792.94;;;18.76;64.42
5952;BME280;3001;42.622;23.194;2023-09-30T00:07:22;91791.38;;;18.60;65.01
5952;BME280;3001;42.622;23.194;2023-09-30T00:09:50;91785.84;;;18.49;65.39
5952;BME280;3001;42.622;23.194;2023-09-30T00:12:18;91790.13;;;18.42;64.61
5952;BME280;3001;42.622;23.194;2023-09-30T00:14:46;91790.56;;;18.44;64.61
5952;BME280;3001;42.622;23.194;2023-09-30T00:17:13;91791.03;;;18.34;64.76
5952;BME280;3001;42.622;23.194;2023-09-30T00:19:40;91786.13;;;18.32;64.93
5952;BME280;3001;42.622;23.194;2023-09-30T00:22:07;91776.59;;;18.16;66.19
5952;BME280;3001;42.622;23.194;2023-09-30T00:24:34;91779.81;;;18.09;66.06
5952;BME280;3001;42.622;23.194;2023-09-30T00:27:00;91779.47;;;18.11;66.26
5952;BME280;3001;42.622;23.194;2023-09-30T00:29:28;91782.38;;;18.33;65.72
5952;BME280;3001;42.622;23.194;2023-09-30T00:31:55;91780.13;;;18.08;65.35
5952;BME280;3001;42.622;23.194;2023-09-30T00:34:22;91775.84;;;18.15;64.48
5952;BME280;3001;42.622;23.194;2023-09-30T00:36:48;91775.97;;;18.07;65.23
5952;BME280;3001;42.622;23.194;2023-09-30T00:39:15;91770.72;;;18.07;65.79
5952;BME280;3001;42.622;23.194;2023-09-30T00:41:42;91766.56;;;17.94;66.06
5952;BME280;3001;42.622;23.194;2023-09-30T00:44:09;91777.06;;;18.06;65.82
5952;BME280;3001;42.622;23.194;2023-09-30T00:46:39;91776.81;;;18.11;65.64
5952;BME280;3001;42.622;23.194;2023-09-30T00:49:06;91771.13;;;17.69;66.80
5952;BME280;3001;42.622;23.194;2023-09-30T00:51:35;91776.63;;;17.52;67.74
5952;BME280;3001;42.622;23.194;2023-09-30T00:54:03;91775.31;;;17.47;68.05
5952;BME280;3001;42.622;23.194;2023-09-30T00:56:31;91778.59;;;17.43;68.44
5952;BME280;3001;42.622;23.194;2023-09-30T00:58:59;91773.56;;;17.39;68.45
5952;BME280;3001;42.622;23.194;2023-09-30T01:01:26;91774.53;;;17.34;68.89
5952;BME280;3001;42.622;23.194;2023-09-30T01:03:54;91772.91;;;17.42;69.74
5952;BME280;3001;42.622;23.194;2023-09-30T01:06:21;91779.59;;;17.39;70.48
5952;BME280;3001;42.622;23.194;2023-09-30T01:08:48;91774.44;;;17.42;70.64
5952;BME280;3001;42.622;23.194;2023-09-30T01:11:15;91780.78;;;17.42;70.66
5952;BME280;3001;42.622;23.194;2023-09-30T01:13:43;91773.31;;;17.43;69.72
5952;BME280;3001;42.622;23.194;2023-09-30T01:16:10;91775.31;;;17.47;69.48
5952;BME280;3001;42.622;23.194;2023-09-30T01:18:37;91765.78;;;17.42;70.65
5952;BME280;3001;42.622;23.194;2023-09-30T01:21:06;91769.19;;;17.54;70.88
5952;BME280;3001;42.622;23.194;2023-09-30T01:23:35;91773.44;;;17.47;70.91
5952;BME280;3001;42.622;23.194;2023-09-30T01:26:02;91766.66;;;17.46;70.81
5952;BME280;3001;42.622;23.194;2023-09-30T01:28:31;91766.97;;;17.33;71.53
5952;BME280;3001;42.622;23.194;2023-09-30T01:30:57;91768.66;;;17.37;71.39
5952;BME280;3001;42.622;23.194;2023-09-30T01:33:24;91769.59;;;17.33;72.22
5952;BME280;3001;42.622;23.194;2023-09-30T01:35:51;91762.38;;;17.42;70.84
5952;BME280;3001;42.622;23.194;2023-09-30T01:38:19;91765.44;;;17.43;71.18
5952;BME280;3001;42.622;23.194;2023-09-30T01:40:48;91763.59;;;17.44;69.66
5952;BME280;3001;42.622;23.194;2023-09-30T01:43:14;91763.59;;;17.44;70.75
5952;BME280;3001;42.622;23.194;2023-09-30T01:45:40;91769.06;;;17.51;71.02
5952;BME280;3001;42.622;23.194;2023-09-30T01:48:07;91769.06;;;17.51;71.53
5952;BME280;3001;42.622;23.194;2023-09-30T01:50:36;91764.59;;;17.51;71.11
5952;BME280;3001;42.622;23.194;2023-09-30T01:53:03;91767.41;;;17.58;70.03
5952;BME280;3001;42.622;23.194;2023-09-30T01:55:29;91769.03;;;17.75;68.51
5952;BME280;3001;42.622;23.194;2023-09-30T01:57:57;91768.28;;;17.62;69.33
5952;BME280;3001;42.622;23.194;2023-09-30T02:00:24;91773.13;;;17.48;69.92
5952;BME280;3001;42.622;23.194;2023-09-30T02:02:53;91773.00;;;17.57;70.81
5952;BME280;3001;42.622;23.194;2023-09-30T02:05:20;91768.84;;;17.44;71.36
5952;BME280;3001;42.622;23.194;2023-09-30T02:07:47;91765.13;;;17.57;71.37
5952;BME280;3001;42.622;23.194;2023-09-30T02:10:13;91765.22;;;17.60;71.16
5952;BME280;3001;42.622;23.194;2023-09-30T02:12:40;91760.75;;;17.61;71.46
5952;BME280;3001;42.622;23.194;2023-09-30T02:15:09;91757.44;;;17.64;71.75
5952;BME280;3001;42.622;23.194;2023-09-30T02:17:36;91755.06;;;17.59;71.59
5952;BME280;3001;42.622;23.194;2023-09-30T02:20:04;91758.19;;;17.64;70.10
5952;BME280;3001;42.622;23.194;2023-09-30T02:22:38;91759.28;;;17.63;68.66
5952;BME280;3001;42.622;23.194;2023-09-30T02:25:05;91771.69;;;17.51;68.86
5952;BME280;3001;42.622;23.194;2023-09-30T02:27:33;91762.81;;;17.55;69.46
5952;BME280;3001;42.622;23.194;2023-09-30T02:29:59;91768.84;;;17.44;70.94
5952;BME280;3001;42.622;23.194;2023-09-30T02:32:28;91759.66;;;17.50;71.34
5952;BME280;3001;42.622;23.194;2023-09-30T02:34:55;91763.06;;;17.50;71.54
5952;BME280;3001;42.622;23.194;2023-09-30T02:37:22;91760.63;;;17.57;70.85
5952;BME280;3001;42.622;23.194;2023-09-30T02:39:48;91761.88;;;17.36;70.83
5952;BME280;3001;42.622;23.194;2023-09-30T02:42:15;91763.72;;;17.48;70.59
5952;BME280;3001;42.622;23.194;2023-09-30T02:44:43;91765.22;;;17.60;70.43
5952;BME280;3001;42.622;23.194;2023-09-30T02:47:09;91762.75;;;17.40;71.37
5952;BME280;3001;42.622;23.194;2023-09-30T02:49:37;91770.81;;;17.59;70.00
5952;BME280;3001;42.622;23.194;2023-09-30T02:52:04;91766.97;;;17.44;69.09
5952;BME280;3001;42.622;23.194;2023-09-30T02:54:31;91768.66;;;17.37;69.81
5952;BME280;3001;42.622;23.194;2023-09-30T02:56:57;91768.41;;;17.42;69.97
5952;BME280;3001;42.622;23.194;2023-09-30T02:59:24;91766.75;;;17.26;69.77
5952;BME280;3001;42.622;23.194;2023-09-30T03:01:51;91771.88;;;17.10;70.46
5952;BME280;3001;42.622;23.194;2023-09-30T03:04:17;91766.50;;;16.95;70.78
5952;BME280;3001;42.622;23.194;2023-09-30T03:06:46;91769.56;;;16.97;70.00
5952;BME280;3001;42.622;23.194;2023-09-30T03:09:13;91767.06;;;17.00;70.65
5952;BME280;3001;42.622;23.194;2023-09-30T03:11:41;91771.44;;;16.96;70.76
5952;BME280;3001;42.622;23.194;2023-09-30T03:14:09;91767.50;;;16.90;71.33
5952;BME280;3001;42.622;23.194;2023-09-30T03:16:36;91763.34;;;17.01;71.24
5952;BME280;3001;42.622;23.194;2023-09-30T03:19:05;91769.03;;;17.15;70.84
5952;BME280;3001;42.622;23.194;2023-09-30T03:21:34;91762.25;;;17.02;69.07
5952;BME280;3001;42.622;23.194;2023-09-30T03:24:03;91765.00;;;17.06;69.84
5952;BME280;3001;42.622;23.194;2023-09-30T03:26:31;91769.16;;;17.19;69.76
5952;BME280;3001;42.622;23.194;2023-09-30T03:28:58;91766.22;;;17.20;69.36
5952;BME280;3001;42.622;23.194;2023-09-30T03:31:25;91768.06;;;17.08;70.42
5952;BME280;3001;42.622;23.194;2023-09-30T03:33:52;91767.97;;;17.16;71.05
5952;BME280;3001;42.622;23.194;2023-09-30T03:36:20;91766.22;;;17.20;69.70
5952;BME280;3001;42.622;23.194;2023-09-30T03:38:47;91764.44;;;17.12;70.31
5952;BME280;3001;42.622;23.194;2023-09-30T03:41:15;91764.44;;;17.12;71.19
5952;BME280;3001;42.622;23.194;2023-09-30T03:43:44;91764.56;;;17.28;70.03
5952;BME280;3001;42.622;23.194;2023-09-30T03:46:12;91760.50;;;17.30;69.68
5952;BME280;3001;42.622;23.194;2023-09-30T03:48:40;91757.13;;;17.18;70.67
5952;BME280;3001;42.622;23.194;2023-09-30T03:51:08;91758.09;;;17.25;70.24
5952;BME280;3001;42.622;23.194;2023-09-30T03:53:35;91756.47;;;17.21;70.84
5952;BME280;3001;42.622;23.194;2023-09-30T03:56:02;91759.50;;;16.99;71.97
5952;BME280;3001;42.622;23.194;2023-09-30T03:58:30;91752.31;;;16.96;72.46
5952;BME280;3001;42.622;23.194;2023-09-30T04:00:57;91756.06;;;16.62;73.74
5952;BME280;3001;42.622;23.194;2023-09-30T04:03:25;91739.66;;;16.53;73.95
5952;BME280;3001;42.622;23.194;2023-09-30T04:05:52;91753.50;;;16.98;72.48
5952;BME280;3001;42.622;23.194;2023-09-30T04:08:19;91747.19;;;16.55;73.71
5952;BME280;3001;42.622;23.194;2023-09-30T04:10:47;91754.75;;;16.56;73.99
5952;BME280;3001;42.622;23.194;2023-09-30T04:13:14;91753.72;;;16.81;72.08
5952;BME280;3001;42.622;23.194;2023-09-30T04:15:43;91758.88;;;16.45;72.55
5952;BME280;3001;42.622;23.194;2023-09-30T04:18:12;91755.59;;;16.36;73.15
5952;BME280;3001;42.622;23.194;2023-09-30T04:20:39;91752.63;;;16.17;73.86
5952;BME280;3001;42.622;23.194;2023-09-30T04:23:07;91745.31;;;16.23;73.88
5952;BME280;3001;42.622;23.194;2023-09-30T04:25:36;91752.97;;;16.48;73.23
5952;BME280;3001;42.622;23.194;2023-09-30T04:28:03;91754.50;;;16.37;74.11
5952;BME280;3001;42.622;23.194;2023-09-30T04:30:30;91763.91;;;16.50;74.28
5952;BME280;3001;42.622;23.194;2023-09-30T04:32:59;91758.09;;;16.77;74.00
5952;BME280;3001;42.622;23.194;2023-09-30T04:35:26;91759.63;;;16.78;73.99
5952;BME280;3001;42.622;23.194;2023-09-30T04:37:55;91756.47;;;16.20;76.58
5952;BME280;3001;42.622;23.194;2023-09-30T04:40:26;91754.81;;;16.36;75.55
5952;BME280;3001;42.622;23.194;2023-09-30T04:42:53;91761.38;;;16.21;76.06
5952;BME280;3001;42.622;23.194;2023-09-30T04:45:23;91769.13;;;16.38;75.02
5952;BME280;3001;42.622;23.194;2023-09-30T04:47:51;91773.00;;;16.32;75.63
5952;BME280;3001;42.622;23.194;2023-09-30T04:50:19;91771.03;;;16.29;74.42
5952;BME280;3001;42.622;23.194;2023-09-30T04:52:47;91767.31;;;16.30;74.90
5952;BME280;3001;42.622;23.194;2023-09-30T04:55:14;91769.81;;;16.47;75.33
5952;BME280;3001;42.622;23.194;2023-09-30T04:57:41;91773.31;;;16.51;74.76
5952;BME280;3001;42.622;23.194;2023-09-30T05:00:11;91770.31;;;16.41;75.58
5952;BME280;3001;42.622;23.194;2023-09-30T05:02:38;91775.31;;;16.54;74.42
5952;BME280;3001;42.622;23.194;2023-09-30T05:05:06;91781.63;;;16.53;72.96
5952;BME280;3001;42.622;23.194;2023-09-30T05:07:34;91780.13;;;16.64;72.49
5952;BME280;3001;42.622;23.194;2023-09-30T05:10:01;91786.81;;;16.74;73.34
5952;BME280;3001;42.622;23.194;2023-09-30T05:12:30;91788.13;;;16.68;74.13
5952;BME280;3001;42.622;23.194;2023-09-30T05:14:58;91785.47;;;16.56;75.71
5952;BME280;3001;42.622;23.194;2023-09-30T05:17:25;91791.66;;;16.51;76.98
5952;BME280;3001;42.622;23.194;2023-09-30T05:19:51;91787.34;;;16.67;76.19
5952;BME280;3001;42.622;23.194;2023-09-30T05:22:18;91790.63;;;16.64;75.81
5952;BME280;3001;42.622;23.194;2023-09-30T05:24:50;91789.09;;;16.63;75.82
5952;BME280;3001;42.622;23.194;2023-09-30T05:27:17;91784.50;;;16.72;75.80
5952;BME280;3001;42.622;23.194;2023-09-30T05:29:44;91782.00;;;16.76;75.93
5952;BME280;3001;42.622;23.194;2023-09-30T05:32:10;91787.13;;;16.72;76.09
5952;BME280;3001;42.622;23.194;2023-09-30T05:34:38;91786.28;;;16.80;76.45
5952;BME280;3001;42.622;23.194;2023-09-30T05:37:05;91782.22;;;16.83;77.00
5952;BME280;3001;42.622;23.194;2023-09-30T05:39:32;91792.06;;;16.74;77.14
5952;BME280;3001;42.622;23.194;2023-09-30T05:42:00;91795.25;;;16.79;76.97
5952;BME280;3001;42.622;23.194;2023-09-30T05:44:26;91790.84;;;16.59;77.53
5952;BME280;3001;42.622;23.194;2023-09-30T05:46:54;91789.47;;;16.53;77.89
5952;BME280;3001;42.622;23.194;2023-09-30T05:49:21;91798.56;;;16.56;78.93
5952;BME280;3001;42.622;23.194;2023-09-30T05:51:47;91791.06;;;16.66;79.12
5952;BME280;3001;42.622;23.194;2023-09-30T05:54:16;91795.22;;;16.67;79.74
5952;BME280;3001;42.622;23.194;2023-09-30T05:56:42;91798.19;;;16.66;80.40
5952;BME280;3001;42.622;23.194;2023-09-30T05:59:11;91788.78;;;16.65;80.55
5952;BME280;3001;42.622;23.194;2023-09-30T06:01:38;91796.34;;;16.78;80.04
5952;BME280;3001;42.622;23.194;2023-09-30T06:04:06;91795.03;;;16.84;80.19
5952;BME280;3001;42.622;23.194;2023-09-30T06:06:33;91802.38;;;16.91;80.19
5952;BME280;3001;42.622;23.194;2023-09-30T06:08:59;91801.94;;;16.89;79.89
5952;BME280;3001;42.622;23.194;2023-09-30T06:11:26;91809.84;;;17.13;79.62
5952;BME280;3001;42.622;23.194;2023-09-30T06:13:54;91813.22;;;17.01;79.73
5952;BME280;3001;42.622;23.194;2023-09-30T06:16:22;91815.06;;;16.89;80.64
5952;BME280;3001;42.622;23.194;2023-09-30T06:18:51;91814.28;;;16.88;81.23
5952;BME280;3001;42.622;23.194;2023-09-30T06:21:18;91821.75;;;17.10;80.36
5952;BME280;3001;42.622;23.194;2023-09-30T06:23:46;91815.97;;;17.17;79.84
5952;BME280;3001;42.622;23.194;2023-09-30T06:26:13;91817.91;;;16.96;81.41
5952;BME280;3001;42.622;23.194;2023-09-30T06:28:41;91819.25;;;17.14;80.70
5952;BME280;3001;42.622;23.194;2023-09-30T06:31:07;91824.56;;;17.38;79.42
5952;BME280;3001;42.622;23.194;2023-09-30T06:33:36;91824.44;;;17.34;79.62
5952;BME280;3001;42.622;23.194;2023-09-30T06:36:08;91824.75;;;17.33;79.75
5952;BME280;3001;42.622;23.194;2023-09-30T06:38:35;91829.81;;;17.38;79.86
5952;BME280;3001;42.622;23.194;2023-09-30T06:41:02;91834.19;;;17.45;79.39
5952;BME280;3001;42.622;23.194;2023-09-30T06:43:29;91825.97;;;17.35;79.72
5952;BME280;3001;42.622;23.194;2023-09-30T06:45:56;91839.66;;;17.52;78.43
5952;BME280;3001;42.622;23.194;2023-09-30T06:48:22;91829.59;;;17.54;78.34
5952;BME280;3001;42.622;23.194;2023-09-30T06:50:50;91829.13;;;17.64;77.85
5952;BME280;3001;42.622;23.194;2023-09-30T06:53:18;91829.91;;;17.65;77.18
5952;BME280;3001;42.622;23.194;2023-09-30T06:55:46;91832.66;;;17.68;77.82
5952;BME280;3001;42.622;23.194;2023-09-30T06:58:13;91833.84;;;17.71;76.62
5952;BME280;3001;42.622;23.194;2023-09-30T07:00:44;91842.06;;;17.81;76.46
5952;BME280;3001;42.622;23.194;2023-09-30T07:03:11;91839.97;;;17.87;75.62
5952;BME280;3001;42.622;23.194;2023-09-30T07:05:40;91844.44;;;17.98;75.44
5952;BME280;3001;42.622;23.194;2023-09-30T07:08:09;91840.13;;;18.30;73.65
5952;BME280;3001;42.622;23.194;2023-09-30T07:10:36;91848.75;;;18.42;73.20
5952;BME280;3001;42.622;23.194;2023-09-30T07:13:03;91839.13;;;18.22;72.77
5952;BME280;3001;42.622;23.194;2023-09-30T07:15:29;91843.44;;;18.15;72.80
5952;BME280;3001;42.622;23.194;2023-09-30T07:17:56;91845.84;;;18.32;71.25
5952;BME280;3001;42.622;23.194;2023-09-30T07:20:23;91842.81;;;18.45;71.55
5952;BME280;3001;42.622;23.194;2023-09-30T07:22:50;91845.69;;;18.40;71.74
5952;BME280;3001;42.622;23.194;2023-09-30T07:25:19;91849.59;;;18.58;71.00
5952;BME280;3001;42.622;23.194;2023-09-30T07:27:46;91855.38;;;18.64;70.73
5952;BME280;3001;42.622;23.194;2023-09-30T07:30:13;91857.63;;;18.77;70.08
5952;BME280;3001;42.622;23.194;2023-09-30T07:32:41;91845.75;;;18.83;70.36
5952;BME280;3001;42.622;23.194;2023-09-30T07:35:08;91850.41;;;18.74;69.90
5952;BME280;3001;42.622;23.194;2023-09-30T07:37:35;91846.88;;;18.98;69.04
5952;BME280;3001;42.622;23.194;2023-09-30T07:40:02;91850.03;;;19.03;69.44
5952;BME280;3001;42.622;23.194;2023-09-30T07:42:31;91841.75;;;19.17;69.25
5952;BME280;3001;42.622;23.194;2023-09-30T07:44:59;91849.28;;;19.03;69.55
5952;BME280;3001;42.622;23.194;2023-09-30T07:47:26;91846.13;;;19.55;68.34
5952;BME280;3001;42.622;23.194;2023-09-30T07:49:52;91848.31;;;19.69;66.06
5952;BME280;3001;42.622;23.194;2023-09-30T07:52:19;91850.03;;;19.77;65.94
5952;BME280;3001;42.622;23.194;2023-09-30T07:54:46;91859.53;;;19.97;64.77
5952;BME280;3001;42.622;23.194;2023-09-30T07:57:12;91855.91;;;20.20;64.07
5952;BME280;3001;42.622;23.194;2023-09-30T07:59:41;91855.25;;;20.23;63.79
5952;BME280;3001;42.622;23.194;2023-09-30T08:02:08;91851.41;;;20.21;62.75
5952;BME280;3001;42.622;23.194;2023-09-30T08:04:34;91850.13;;;20.30;62.26
5952;BME280;3001;42.622;23.194;2023-09-30T08:07:02;91856.66;;;20.36;62.37
5952;BME280;3001;42.622;23.194;2023-09-30T08:09:28;91856.16;;;20.50;62.53
5952;BME280;3001;42.622;23.194;2023-09-30T08:11:55;91853.41;;;20.62;61.07
5952;BME280;3001;42.622;23.194;2023-09-30T08:14:22;91854.34;;;20.88;60.57
5952;BME280;3001;42.622;23.194;2023-09-30T08:16:50;91863.41;;;21.09;59.12
5952;BME280;3001;42.622;23.194;2023-09-30T08:19:17;91863.00;;;21.08;58.62
5952;BME280;3001;42.622;23.194;2023-09-30T08:21:46;91857.75;;;21.30;57.36
5952;BME280;3001;42.622;23.194;2023-09-30T08:24:12;91859.38;;;21.34;56.10
5952;BME280;3001;42.622;23.194;2023-09-30T08:26:39;91854.75;;;21.31;56.88
5952;BME280;3001;42.622;23.194;2023-09-30T08:29:06;91854.78;;;21.54;54.78
5952;BME280;3001;42.622;23.194;2023-09-30T08:31:33;91856.28;;;21.74;54.03
5952;BME280;3001;42.622;23.194;2023-09-30T08:34:01;91867.31;;;21.79;53.78
5952;BME280;3001;42.622;23.194;2023-09-30T08:36:29;91856.94;;;21.93;52.59
5952;BME280;3001;42.622;23.194;2023-09-30T08:38:56;91853.88;;;22.14;51.70
5952;BME280;3001;42.622;23.194;2023-09-30T08:41:30;91861.22;;;22.50;51.39
5952;BME280;3001;42.622;23.194;2023-09-30T08:43:59;91862.75;;;22.54;48.87
5952;BME280;3001;42.622;23.194;2023-09-30T08:46:29;91861.38;;;22.64;48.08
5952;BME280;3001;42.622;23.194;2023-09-30T08:48:57;91861.75;;;22.62;47.88
5952;BME280;3001;42.622;23.194;2023-09-30T08:51:25;91866.63;;;22.90;46.40
5952;BME280;3001;42.622;23.194;2023-09-30T08:53:52;91865.53;;;23.23;45.32
5952;BME280;3001;42.622;23.194;2023-09-30T08:56:24;91863.88;;;23.48;46.25
5952;BME280;3001;42.622;23.194;2023-09-30T08:58:52;91866.47;;;23.41;45.73
5952;BME280;3001;42.622;23.194;2023-09-30T09:01:19;91872.06;;;23.73;43.73
5952;BME280;3001;42.622;23.194;2023-09-30T09:03:47;91869.03;;;23.71;44.67
5952;BME280;3001;42.622;23.194;2023-09-30T09:06:18;91865.41;;;23.89;44.24
5952;BME280;3001;42.622;23.194;2023-09-30T09:08:46;91864.31;;;23.90;43.97
5952;BME280;3001;42.622;23.194;2023-09-30T09:11:13;91862.00;;;23.89;42.85
5952;BME280;3001;42.622;23.194;2023-09-30T09:13:48;91866.84;;;24.30;42.47
5952;BME280;3001;42.622;23.194;2023-09-30T09:16:16;91867.34;;;24.46;42.86
5952;BME280;3001;42.622;23.194;2023-09-30T09:18:44;91866.19;;;24.44;42.03
5952;BME280;3001;42.622;23.194;2023-09-30T09:21:14;91860.59;;;24.52;40.99
5952;BME280;3001;42.622;23.194;2023-09-30T09:23:46;91878.06;;;24.57;40.35
5952;BME280;3001;42.622;23.194;2023-09-30T09:26:23;91878.50;;;24.66;40.35
5952;BME280;3001;42.622;23.194;2023-09-30T09:28:56;91876.38;;;24.92;39.49
5952;BME280;3001;42.622;23.194;2023-09-30T09:31:25;91877.47;;;24.91;40.34
5952;BME280;3001;42.622;23.194;2023-09-30T09:33:52;91867.97;;;24.86;39.88
5952;BME280;3001;42.622;23.194;2023-09-30T09:36:19;91865.38;;;25.00;39.61
5952;BME280;3001;42.622;23.194;2023-09-30T09:38:49;91874.25;;;25.25;39.05
5952;BME280;3001;42.622;23.194;2023-09-30T09:41:19;91873.94;;;25.55;40.71
5952;BME280;3001;42.622;23.194;2023-09-30T09:43:48;91878.09;;;25.52;38.17
5952;BME280;3001;42.622;23.194;2023-09-30T09:46:16;91865.09;;;25.19;37.65
5952;BME280;3001;42.622;23.194;2023-09-30T09:48:45;91866.72;;;25.59;37.73
5952;BME280;3001;42.622;23.194;2023-09-30T09:51:13;91865.53;;;25.42;36.56
5952;BME280;3001;42.622;23.194;2023-09-30T09:53:41;91852.63;;;25.44;38.51
5952;BME280;3001;42.622;23.194;2023-09-30T09:56:10;91864.00;;;25.38;38.33
5952;BME280;3001;42.622;23.194;2023-09-30T09:58:39;91862.53;;;25.54;37.33
5952;BME280;3001;42.622;23.194;2023-09-30T10:01:09;91848.06;;;25.48;36.89
5952;BME280;3001;42.622;23.194;2023-09-30T10:03:37;91859.50;;;25.56;36.63
5952;BME280;3001;42.622;23.194;2023-09-30T10:06:04;91854.94;;;25.67;37.63
5952;BME280;3001;42.622;23.194;2023-09-30T10:08:35;91858.38;;;25.74;36.59
5952;BME280;3001;42.622;23.194;2023-09-30T10:11:03;91843.22;;;25.92;35.55
5952;BME280;3001;42.622;23.194;2023-09-30T10:13:54;91844.69;;;25.79;36.72
5952;BME280;3001;42.622;23.194;2023-09-30T10:16:47;91833.72;;;25.84;36.52
5952;BME280;3001;42.622;23.194;2023-09-30T10:19:15;91838.97;;;25.70;35.88
5952;BME280;3001;42.622;23.194;2023-09-30T10:24:44;91832.91;;;26.22;35.22
5952;BME280;3001;42.622;23.194;2023-09-30T10:27:43;91834.44;;;26.13;33.82
5952;BME280;3001;42.622;23.194;2023-09-30T10:30:14;91830.22;;;26.33;36.52
5952;BME280;3001;42.622;23.194;2023-09-30T10:33:09;91834.44;;;26.30;35.26
5952;BME280;3001;42.622;23.194;2023-09-30T10:35:54;91824.53;;;26.31;35.38
5952;BME280;3001;42.622;23.194;2023-09-30T10:38:37;91831.75;;;26.48;34.96
5952;BME280;3001;42.622;23.194;2023-09-30T10:41:09;91828.31;;;26.47;35.08
5952;BME280;3001;42.622;23.194;2023-09-30T10:43:39;91826.00;;;26.67;33.48
5952;BME280;3001;42.622;23.194;2023-09-30T10:46:32;91824.84;;;26.78;33.89
5952;BME280;3001;42.622;23.194;2023-09-30T10:49:15;91828.59;;;26.84;33.93
5952;BME280;3001;42.622;23.194;2023-09-30T10:51:43;91812.19;;;26.96;34.58
5952;BME280;3001;42.622;23.194;2023-09-30T10:54:12;91795.03;;;27.00;34.17
5952;BME280;3001;42.622;23.194;2023-09-30T10:56:39;91804.91;;;27.10;33.40
5952;BME280;3001;42.622;23.194;2023-09-30T10:59:06;91800.38;;;26.93;33.25
5952;BME280;3001;42.622;23.194;2023-09-30T11:01:34;91807.97;;;27.05;32.77
5952;BME280;3001;42.622;23.194;2023-09-30T11:04:02;91801.56;;;26.89;32.91
5952;BME280;3001;42.622;23.194;2023-09-30T11:06:30;91794.66;;;26.98;32.14
5952;BME280;3001;42.622;23.194;2023-09-30T11:08:58;91799.97;;;27.05;32.26
5952;BME280;3001;42.622;23.194;2023-09-30T11:11:36;91791.56;;;27.14;32.42
5952;BME280;3001;42.622;23.194;2023-09-30T11:14:16;91797.63;;;27.21;31.64
5952;BME280;3001;42.622;23.194;2023-09-30T11:16:45;91795.03;;;27.11;29.77
5952;BME280;3001;42.622;23.194;2023-09-30T11:19:12;91805.22;;;27.26;30.91
5952;BME280;3001;42.622;23.194;2023-09-30T11:21:40;91798.31;;;27.32;31.83
5952;BME280;3001;42.622;23.194;2023-09-30T11:24:09;91804.69;;;27.52;31.30
5952;BME280;3001;42.622;23.194;2023-09-30T11:26:37;91798.47;;;27.69;31.13
5952;BME280;3001;42.622;23.194;2023-09-30T11:29:07;91797.78;;;27.58;30.97
5952;BME280;3001;42.622;23.194;2023-09-30T11:31:36;91783.69;;;27.54;30.68
5952;BME280;3001;42.622;23.194;2023-09-30T11:34:04;91787.28;;;27.88;30.82
5952;BME280;3001;42.622;23.194;2023-09-30T11:36:34;91789.41;;;28.07;29.64
5952;BME280;3001;42.622;23.194;2023-09-30T11:39:01;91802.06;;;28.03;30.39
5952;BME280;3001;42.622;23.194;2023-09-30T11:41:35;91781.44;;;28.04;30.37
5952;BME280;3001;42.622;23.194;2023-09-30T11:44:05;91791.03;;;27.94;29.50
5952;BME280;3001;42.622;23.194;2023-09-30T11:46:33;91791.28;;;28.14;29.68
5952;BME280;3001;42.622;23.194;2023-09-30T11:49:24;91785.84;;;28.21;29.56
5952;BME280;3001;42.622;23.194;2023-09-30T11:51:51;91782.25;;;27.97;29.09
5952;BME280;3001;42.622;23.194;2023-09-30T11:54:18;91780.69;;;28.03;29.25
5952;BME280;3001;42.622;23.194;2023-09-30T11:56:44;91779.03;;;28.16;29.85
5952;BME280;3001;42.622;23.194;2023-09-30T11:59:13;91779.34;;;28.22;28.78
5952;BME280;3001;42.622;23.194;2023-09-30T12:01:39;91772.94;;;28.12;29.51
5952;BME280;3001;42.622;23.194;2023-09-30T12:04:06;91776.50;;;28.02;29.18
5952;BME280;3001;42.622;23.194;2023-09-30T12:06:35;91771.41;;;28.15;30.70
5952;BME280;3001;42.622;23.194;2023-09-30T12:09:03;91769.38;;;28.26;29.36
5952;BME280;3001;42.622;23.194;2023-09-30T12:11:30;91758.88;;;28.08;30.52
5952;BME280;3001;42.622;23.194;2023-09-30T12:13:57;91759.44;;;28.30;29.14
5952;BME280;3001;42.622;23.194;2023-09-30T12:16:24;91747.28;;;28.22;30.17
5952;BME280;3001;42.622;23.194;2023-09-30T12:18:50;91748.28;;;28.38;29.33
5952;BME280;3001;42.622;23.194;2023-09-30T12:21:17;91751.41;;;28.33;29.02
5952;BME280;3001;42.622;23.194;2023-09-30T12:23:46;91758.09;;;28.52;28.55
5952;BME280;3001;42.622;23.194;2023-09-30T12:26:14;91741.44;;;28.37;29.04
5952;BME280;3001;42.622;23.194;2023-09-30T12:28:43;91740.41;;;28.24;29.47
5952;BME280;3001;42.622;23.194;2023-09-30T12:31:09;91740.84;;;28.19;30.02
5952;BME280;3001;42.622;23.194;2023-09-30T12:33:36;91748.81;;;28.23;30.45
5952;BME280;3001;42.622;23.194;2023-09-30T12:36:03;91740.91;;;28.12;28.11
5952;BME280;3001;42.622;23.194;2023-09-30T12:38:30;91745.34;;;28.26;29.62
5952;BME280;3001;42.622;23.194;2023-09-30T12:40:58;91746.91;;;28.23;30.34
5952;BME280;3001;42.622;23.194;2023-09-30T12:43:26;91738.56;;;28.18;29.54
5952;BME280;3001;42.622;23.194;2023-09-30T12:45:52;91738.53;;;28.58;29.47
5952;BME280;3001;42.622;23.194;2023-09-30T12:48:19;91743.28;;;28.44;29.78
5952;BME280;3001;42.622;23.194;2023-09-30T12:50:46;91738.34;;;28.42;29.24
5952;BME280;3001;42.622;23.194;2023-09-30T12:53:13;91742.13;;;28.45;28.90
5952;BME280;3001;42.622;23.194;2023-09-30T12:55:40;91737.91;;;28.47;28.70
5952;BME280;3001;42.622;23.194;2023-09-30T12:58:09;91727.31;;;28.37;29.28
5952;BME280;3001;42.622;23.194;2023-09-30T13:00:35;91728.59;;;28.18;29.83
5952;BME280;3001;42.622;23.194;2023-09-30T13:03:03;91731.53;;;28.34;30.16
5952;BME280;3001;42.622;23.194;2023-09-30T13:05:30;91733.56;;;28.20;28.85
5952;BME280;3001;42.622;23.194;2023-09-30T13:07:56;91733.91;;;28.25;28.49
5952;BME280;3001;42.622;23.194;2023-09-30T13:10:24;91736.56;;;28.25;30.08
5952;BME280;3001;42.622;23.194;2023-09-30T13:12:51;91730.50;;;28.21;28.75
5952;BME280;3001;42.622;23.194;2023-09-30T13:15:21;91726.25;;;28.27;28.96
5952;BME280;3001;42.622;23.194;2023-09-30T13:17:49;91731.88;;;28.36;28.61